Kenly, North Carolina
Current Conditions -  °F | °C
As of 4:15 AM on Wednesday 22 Oct 2014 (Local Time) from KGWW Reporting Station
Clear Clear  
Wind Chill: 52°   Ceiling: Unl
Heat Index: 52°   Visibility: 10mi
Dew Point: 42°   Wind: 6mph
Humidity: 69%   Direction: 310°NW
Pressure: 29.9"   Gusts: NA
Location:  35.6°N, 78.12°W
Report Text: KGWW 220815Z AUTO 31005KT 10SM CLR 11/06 A2990 RMK AO2 T01100056
Loading
Personal Weather Stations






























Interactive Weather Map
Tropical Storm Tracking
New forecast layout! Learn more

10-Day Weather Forecast

Advertisements
Track Severe Weather on mobile